sensor_id;sensor_type;location;lat;lon;timestamp;pressure;altitude;pressure_sealevel;temperature;humidity
49645;BME280;36494;50.730;-1.932;2023-11-21T00:00:21;101039.36;;;9.49;100.00
49645;BME280;36494;50.730;-1.932;2023-11-21T00:02:47;101041.50;;;9.47;100.00
49645;BME280;36494;50.730;-1.932;2023-11-21T00:05:13;101046.09;;;9.49;100.00
49645;BME280;36494;50.730;-1.932;2023-11-21T00:07:37;101052.71;;;9.49;100.00
49645;BME280;36494;50.730;-1.932;2023-11-21T00:10:03;101052.17;;;9.48;100.00
49645;BME280;36494;50.730;-1.932;2023-11-21T00:12:27;101054.10;;;9.47;100.00
49645;BME280;36494;50.730;-1.932;2023-11-21T00:14:53;101056.12;;;9.42;100.00
49645;BME280;36494;50.730;-1.932;2023-11-21T00:17:18;101053.69;;;9.46;100.00
49645;BME280;36494;50.730;-1.932;2023-11-21T00:19:43;101057.26;;;9.46;100.00
49645;BME280;36494;50.730;-1.932;2023-11-21T00:22:09;101062.69;;;9.47;100.00
49645;BME280;36494;50.730;-1.932;2023-11-21T00:24:34;101058.82;;;9.49;100.00
49645;BME280;36494;50.730;-1.932;2023-11-21T00:27:00;101067.11;;;9.44;100.00
49645;BME280;36494;50.730;-1.932;2023-11-21T00:29:25;101074.24;;;9.43;100.00
49645;BME280;36494;50.730;-1.932;2023-11-21T00:31:50;101077.71;;;9.45;100.00
49645;BME280;36494;50.730;-1.932;2023-11-21T00:34:16;101078.10;;;9.40;100.00
49645;BME280;36494;50.730;-1.932;2023-11-21T00:36:41;101081.53;;;9.42;100.00
49645;BME280;36494;50.730;-1.932;2023-11-21T00:39:06;101079.68;;;9.33;100.00
49645;BME280;36494;50.730;-1.932;2023-11-21T00:41:31;101080.04;;;9.37;100.00
49645;BME280;36494;50.730;-1.932;2023-11-21T00:43:57;101082.00;;;9.40;100.00
49645;BME280;36494;50.730;-1.932;2023-11-21T00:46:22;101077.65;;;9.36;100.00
49645;BME280;36494;50.730;-1.932;2023-11-21T00:48:47;101079.27;;;9.35;100.00
49645;BME280;36494;50.730;-1.932;2023-11-21T00:51:13;101081.58;;;9.34;100.00
49645;BME280;36494;50.730;-1.932;2023-11-21T00:53:38;101089.67;;;9.35;100.00
49645;BME280;36494;50.730;-1.932;2023-11-21T00:56:04;101096.31;;;9.28;100.00
49645;BME280;36494;50.730;-1.932;2023-11-21T00:58:29;101095.92;;;9.31;100.00
49645;BME280;36494;50.730;-1.932;2023-11-21T01:00:54;101097.68;;;9.34;100.00
49645;BME280;36494;50.730;-1.932;2023-11-21T01:03:19;101100.18;;;9.29;100.00
49645;BME280;36494;50.730;-1.932;2023-11-21T01:05:45;101100.35;;;9.38;100.00
49645;BME280;36494;50.730;-1.932;2023-11-21T01:08:10;101096.57;;;9.26;100.00
49645;BME280;36494;50.730;-1.932;2023-11-21T01:10:35;101097.59;;;9.32;100.00
49645;BME280;36494;50.730;-1.932;2023-11-21T01:13:00;101101.60;;;9.30;100.00
49645;BME280;36494;50.730;-1.932;2023-11-21T01:15:26;101102.67;;;9.24;100.00
49645;BME280;36494;50.730;-1.932;2023-11-21T01:17:51;101103.59;;;9.25;100.00
49645;BME280;36494;50.730;-1.932;2023-11-21T01:20:17;101108.63;;;9.28;100.00
49645;BME280;36494;50.730;-1.932;2023-11-21T01:22:42;101110.77;;;9.29;100.00
49645;BME280;36494;50.730;-1.932;2023-11-21T01:25:07;101114.49;;;9.23;100.00
49645;BME280;36494;50.730;-1.932;2023-11-21T01:27:32;101118.82;;;9.27;100.00
49645;BME280;36494;50.730;-1.932;2023-11-21T01:29:58;101119.98;;;9.27;100.00
49645;BME280;36494;50.730;-1.932;2023-11-21T01:32:23;101120.55;;;9.32;100.00
49645;BME280;36494;50.730;-1.932;2023-11-21T01:34:50;101122.34;;;9.30;100.00
49645;BME280;36494;50.730;-1.932;2023-11-21T01:37:13;101128.63;;;9.32;100.00
49645;BME280;36494;50.730;-1.932;2023-11-21T01:39:39;101126.52;;;9.35;100.00
49645;BME280;36494;50.730;-1.932;2023-11-21T01:42:05;101131.44;;;9.40;100.00
49645;BME280;36494;50.730;-1.932;2023-11-21T01:44:30;101129.57;;;9.34;100.00
49645;BME280;36494;50.730;-1.932;2023-11-21T01:46:56;101131.32;;;9.35;100.00
49645;BME280;36494;50.730;-1.932;2023-11-21T01:49:20;101137.29;;;9.40;100.00
49645;BME280;36494;50.730;-1.932;2023-11-21T01:51:49;101140.93;;;9.45;100.00
49645;BME280;36494;50.730;-1.932;2023-11-21T01:54:11;101144.06;;;9.45;100.00
49645;BME280;36494;50.730;-1.932;2023-11-21T01:56:36;101150.01;;;9.49;100.00
49645;BME280;36494;50.730;-1.932;2023-11-21T01:59:02;101154.68;;;9.44;100.00
49645;BME280;36494;50.730;-1.932;2023-11-21T02:01:27;101159.79;;;9.43;100.00
49645;BME280;36494;50.730;-1.932;2023-11-21T02:03:53;101161.62;;;9.43;100.00
49645;BME280;36494;50.730;-1.932;2023-11-21T02:06:18;101166.72;;;9.41;100.00
49645;BME280;36494;50.730;-1.932;2023-11-21T02:08:43;101164.21;;;9.45;100.00
49645;BME280;36494;50.730;-1.932;2023-11-21T02:11:08;101164.10;;;9.55;100.00
49645;BME280;36494;50.730;-1.932;2023-11-21T02:13:34;101169.94;;;9.58;100.00
49645;BME280;36494;50.730;-1.932;2023-11-21T02:15:59;101173.76;;;9.63;100.00
49645;BME280;36494;50.730;-1.932;2023-11-21T02:18:25;101174.44;;;9.64;100.00
49645;BME280;36494;50.730;-1.932;2023-11-21T02:20:50;101175.09;;;9.66;100.00
49645;BME280;36494;50.730;-1.932;2023-11-21T02:23:15;101180.35;;;9.72;100.00
49645;BME280;36494;50.730;-1.932;2023-11-21T02:25:41;101182.07;;;9.67;100.00
49645;BME280;36494;50.730;-1.932;2023-11-21T02:28:09;101187.78;;;9.70;100.00
49645;BME280;36494;50.730;-1.932;2023-11-21T02:30:32;101193.95;;;9.68;100.00
49645;BME280;36494;50.730;-1.932;2023-11-21T02:32:57;101198.96;;;9.64;100.00
49645;BME280;36494;50.730;-1.932;2023-11-21T02:35:22;101204.81;;;9.71;100.00
49645;BME280;36494;50.730;-1.932;2023-11-21T02:37:48;101207.93;;;9.68;100.00
49645;BME280;36494;50.730;-1.932;2023-11-21T02:40:16;101216.04;;;9.68;100.00
49645;BME280;36494;50.730;-1.932;2023-11-21T02:42:39;101213.11;;;9.73;100.00
49645;BME280;36494;50.730;-1.932;2023-11-21T02:45:04;101222.50;;;9.59;100.00
49645;BME280;36494;50.730;-1.932;2023-11-21T02:47:29;101225.26;;;9.64;100.00
49645;BME280;36494;50.730;-1.932;2023-11-21T02:49:54;101228.42;;;9.65;100.00
49645;BME280;36494;50.730;-1.932;2023-11-21T02:52:20;101232.64;;;9.66;100.00
49645;BME280;36494;50.730;-1.932;2023-11-21T02:54:45;101235.12;;;9.71;100.00
49645;BME280;36494;50.730;-1.932;2023-11-21T02:57:11;101233.73;;;9.74;100.00
49645;BME280;36494;50.730;-1.932;2023-11-21T02:59:36;101231.88;;;9.73;100.00
49645;BME280;36494;50.730;-1.932;2023-11-21T03:02:01;101232.80;;;9.65;100.00
49645;BME280;36494;50.730;-1.932;2023-11-21T03:04:27;101234.07;;;9.77;100.00
49645;BME280;36494;50.730;-1.932;2023-11-21T03:06:52;101235.84;;;9.76;100.00
49645;BME280;36494;50.730;-1.932;2023-11-21T03:09:17;101230.11;;;9.83;100.00
49645;BME280;36494;50.730;-1.932;2023-11-21T03:11:43;101231.30;;;9.86;100.00
49645;BME280;36494;50.730;-1.932;2023-11-21T03:14:08;101232.25;;;9.86;100.00
49645;BME280;36494;50.730;-1.932;2023-11-21T03:16:33;101234.20;;;9.87;100.00
49645;BME280;36494;50.730;-1.932;2023-11-21T03:18:59;101236.54;;;9.83;100.00
49645;BME280;36494;50.730;-1.932;2023-11-21T03:21:24;101236.43;;;9.89;100.00
49645;BME280;36494;50.730;-1.932;2023-11-21T03:23:49;101238.76;;;9.84;100.00
49645;BME280;36494;50.730;-1.932;2023-11-21T03:26:14;101243.55;;;9.83;100.00
49645;BME280;36494;50.730;-1.932;2023-11-21T03:28:40;101248.86;;;9.84;100.00
49645;BME280;36494;50.730;-1.932;2023-11-21T03:31:06;101252.54;;;9.87;100.00
49645;BME280;36494;50.730;-1.932;2023-11-21T03:33:30;101253.85;;;9.91;100.00
49645;BME280;36494;50.730;-1.932;2023-11-21T03:35:56;101260.66;;;9.91;100.00
49645;BME280;36494;50.730;-1.932;2023-11-21T03:38:21;101265.11;;;9.92;100.00
49645;BME280;36494;50.730;-1.932;2023-11-21T03:40:47;101274.30;;;9.93;100.00
49645;BME280;36494;50.730;-1.932;2023-11-21T03:43:12;101273.34;;;9.96;100.00
49645;BME280;36494;50.730;-1.932;2023-11-21T03:45:37;101274.96;;;9.93;100.00
49645;BME280;36494;50.730;-1.932;2023-11-21T03:48:03;101278.37;;;9.97;100.00
49645;BME280;36494;50.730;-1.932;2023-11-21T03:50:28;101281.45;;;9.98;100.00
49645;BME280;36494;50.730;-1.932;2023-11-21T03:52:53;101281.52;;;9.98;100.00
49645;BME280;36494;50.730;-1.932;2023-11-21T03:55:19;101283.71;;;9.98;100.00
49645;BME280;36494;50.730;-1.932;2023-11-21T03:57:44;101291.37;;;9.98;100.00
49645;BME280;36494;50.730;-1.932;2023-11-21T04:00:10;101299.14;;;9.97;100.00
49645;BME280;36494;50.730;-1.932;2023-11-21T04:02:35;101302.40;;;9.97;100.00
49645;BME280;36494;50.730;-1.932;2023-11-21T04:05:00;101306.18;;;9.98;100.00
49645;BME280;36494;50.730;-1.932;2023-11-21T04:07:26;101312.46;;;10.00;100.00
49645;BME280;36494;50.730;-1.932;2023-11-21T04:09:51;101316.90;;;9.98;100.00
49645;BME280;36494;50.730;-1.932;2023-11-21T04:12:16;101319.99;;;9.99;100.00
49645;BME280;36494;50.730;-1.932;2023-11-21T04:14:41;101323.49;;;9.99;100.00
49645;BME280;36494;50.730;-1.932;2023-11-21T04:17:07;101326.07;;;10.03;100.00
49645;BME280;36494;50.730;-1.932;2023-11-21T04:19:32;101324.67;;;9.99;100.00
49645;BME280;36494;50.730;-1.932;2023-11-21T04:21:57;101327.94;;;9.99;100.00
49645;BME280;36494;50.730;-1.932;2023-11-21T04:24:22;101327.94;;;9.99;100.00
49645;BME280;36494;50.730;-1.932;2023-11-21T04:26:48;101331.53;;;10.05;100.00
49645;BME280;36494;50.730;-1.932;2023-11-21T04:29:13;101331.16;;;9.98;100.00
49645;BME280;36494;50.730;-1.932;2023-11-21T04:31:38;101326.46;;;10.00;100.00
49645;BME280;36494;50.730;-1.932;2023-11-21T04:34:04;101326.15;;;10.05;100.00
49645;BME280;36494;50.730;-1.932;2023-11-21T04:36:29;101324.49;;;10.09;100.00
49645;BME280;36494;50.730;-1.932;2023-11-21T04:38:54;101329.55;;;10.05;100.00
49645;BME280;36494;50.730;-1.932;2023-11-21T04:41:20;101331.54;;;10.08;100.00
49645;BME280;36494;50.730;-1.932;2023-11-21T04:43:45;101339.03;;;10.06;100.00
49645;BME280;36494;50.730;-1.932;2023-11-21T04:46:10;101339.82;;;10.08;100.00
49645;BME280;36494;50.730;-1.932;2023-11-21T04:48:35;101344.34;;;10.11;100.00
49645;BME280;36494;50.730;-1.932;2023-11-21T04:51:01;101345.36;;;10.11;100.00
49645;BME280;36494;50.730;-1.932;2023-11-21T04:53:26;101349.41;;;10.12;100.00
49645;BME280;36494;50.730;-1.932;2023-11-21T04:55:51;101350.53;;;10.08;100.00
49645;BME280;36494;50.730;-1.932;2023-11-21T04:58:17;101355.04;;;10.12;100.00
49645;BME280;36494;50.730;-1.932;2023-11-21T05:00:42;101357.34;;;10.09;100.00
49645;BME280;36494;50.730;-1.932;2023-11-21T05:03:07;101365.89;;;10.17;100.00
49645;BME280;36494;50.730;-1.932;2023-11-21T05:05:32;101368.93;;;10.10;100.00
49645;BME280;36494;50.730;-1.932;2023-11-21T05:07:57;101375.72;;;10.11;100.00
49645;BME280;36494;50.730;-1.932;2023-11-21T05:10:23;101375.55;;;10.07;100.00
49645;BME280;36494;50.730;-1.932;2023-11-21T05:12:48;101381.16;;;10.12;100.00
49645;BME280;36494;50.730;-1.932;2023-11-21T05:15:15;101377.72;;;10.11;100.00
49645;BME280;36494;50.730;-1.932;2023-11-21T05:17:39;101378.44;;;10.11;100.00
49645;BME280;36494;50.730;-1.932;2023-11-21T05:20:05;101383.37;;;10.12;100.00
49645;BME280;36494;50.730;-1.932;2023-11-21T05:22:29;101390.10;;;10.12;100.00
49645;BME280;36494;50.730;-1.932;2023-11-21T05:24:55;101393.63;;;10.09;100.00
49645;BME280;36494;50.730;-1.932;2023-11-21T05:27:20;101402.45;;;10.12;100.00
49645;BME280;36494;50.730;-1.932;2023-11-21T05:29:45;101407.35;;;10.10;100.00
49645;BME280;36494;50.730;-1.932;2023-11-21T05:32:11;101408.91;;;10.07;100.00
49645;BME280;36494;50.730;-1.932;2023-11-21T05:34:36;101413.42;;;10.15;100.00
49645;BME280;36494;50.730;-1.932;2023-11-21T05:37:01;101413.21;;;10.10;100.00
49645;BME280;36494;50.730;-1.932;2023-11-21T05:39:27;101416.15;;;10.14;100.00
49645;BME280;36494;50.730;-1.932;2023-11-21T05:41:52;101418.08;;;10.14;100.00
49645;BME280;36494;50.730;-1.932;2023-11-21T05:44:17;101418.27;;;10.18;100.00
49645;BME280;36494;50.730;-1.932;2023-11-21T05:46:42;101417.66;;;10.21;100.00
49645;BME280;36494;50.730;-1.932;2023-11-21T05:49:08;101423.44;;;10.20;100.00
49645;BME280;36494;50.730;-1.932;2023-11-21T05:51:33;101422.87;;;10.16;100.00
49645;BME280;36494;50.730;-1.932;2023-11-21T05:53:59;101425.59;;;10.16;100.00
49645;BME280;36494;50.730;-1.932;2023-11-21T05:56:24;101432.80;;;10.16;100.00
49645;BME280;36494;50.730;-1.932;2023-11-21T05:58:50;101436.39;;;10.16;100.00
49645;BME280;36494;50.730;-1.932;2023-11-21T06:01:15;101435.43;;;10.19;100.00
49645;BME280;36494;50.730;-1.932;2023-11-21T06:03:40;101439.71;;;10.17;100.00
49645;BME280;36494;50.730;-1.932;2023-11-21T06:06:06;101450.48;;;10.18;100.00
49645;BME280;36494;50.730;-1.932;2023-11-21T06:08:31;101451.27;;;10.20;100.00
49645;BME280;36494;50.730;-1.932;2023-11-21T06:10:56;101457.95;;;10.16;100.00
49645;BME280;36494;50.730;-1.932;2023-11-21T06:13:21;101455.50;;;10.09;100.00
49645;BME280;36494;50.730;-1.932;2023-11-21T06:15:47;101458.30;;;10.14;100.00
49645;BME280;36494;50.730;-1.932;2023-11-21T06:18:12;101466.41;;;10.09;100.00
49645;BME280;36494;50.730;-1.932;2023-11-21T06:20:38;101474.71;;;10.12;100.00
49645;BME280;36494;50.730;-1.932;2023-11-21T06:23:03;101480.60;;;10.07;100.00
49645;BME280;36494;50.730;-1.932;2023-11-21T06:25:28;101484.53;;;10.08;100.00
49645;BME280;36494;50.730;-1.932;2023-11-21T06:27:54;101482.35;;;10.06;100.00
49645;BME280;36494;50.730;-1.932;2023-11-21T06:30:19;101488.70;;;10.05;100.00
49645;BME280;36494;50.730;-1.932;2023-11-21T06:32:44;101498.37;;;10.11;100.00
49645;BME280;36494;50.730;-1.932;2023-11-21T06:35:09;101504.63;;;10.09;100.00
49645;BME280;36494;50.730;-1.932;2023-11-21T06:37:34;101505.49;;;9.98;100.00
49645;BME280;36494;50.730;-1.932;2023-11-21T06:40:00;101518.00;;;9.99;100.00
49645;BME280;36494;50.730;-1.932;2023-11-21T06:42:26;101522.27;;;9.91;100.00
49645;BME280;36494;50.730;-1.932;2023-11-21T06:44:51;101525.26;;;9.84;100.00
49645;BME280;36494;50.730;-1.932;2023-11-21T06:47:16;101529.13;;;9.75;100.00
49645;BME280;36494;50.730;-1.932;2023-11-21T06:49:43;101525.67;;;9.65;100.00
49645;BME280;36494;50.730;-1.932;2023-11-21T06:52:07;101530.86;;;9.61;100.00
49645;BME280;36494;50.730;-1.932;2023-11-21T06:54:33;101535.62;;;9.55;100.00
49645;BME280;36494;50.730;-1.932;2023-11-21T06:56:58;101543.60;;;9.46;100.00
49645;BME280;36494;50.730;-1.932;2023-11-21T06:59:23;101544.80;;;9.47;100.00
49645;BME280;36494;50.730;-1.932;2023-11-21T07:01:49;101552.46;;;9.44;100.00
49645;BME280;36494;50.730;-1.932;2023-11-21T07:04:14;101558.49;;;9.47;100.00
49645;BME280;36494;50.730;-1.932;2023-11-21T07:06:39;101559.80;;;9.37;100.00
49645;BME280;36494;50.730;-1.932;2023-11-21T07:09:05;101567.59;;;9.24;100.00
49645;BME280;36494;50.730;-1.932;2023-11-21T07:11:30;101568.98;;;9.15;100.00
49645;BME280;36494;50.730;-1.932;2023-11-21T07:13:55;101579.67;;;9.13;100.00
49645;BME280;36494;50.730;-1.932;2023-11-21T07:16:21;101582.38;;;9.15;100.00
49645;BME280;36494;50.730;-1.932;2023-11-21T07:18:46;101587.26;;;9.17;100.00
49645;BME280;36494;50.730;-1.932;2023-11-21T07:21:11;101592.79;;;9.18;100.00
49645;BME280;36494;50.730;-1.932;2023-11-21T07:23:37;101599.53;;;9.11;100.00
49645;BME280;36494;50.730;-1.932;2023-11-21T07:26:02;101605.95;;;9.13;100.00
49645;BME280;36494;50.730;-1.932;2023-11-21T07:28:27;101615.22;;;9.15;100.00
49645;BME280;36494;50.730;-1.932;2023-11-21T07:30:53;101618.07;;;9.11;100.00
49645;BME280;36494;50.730;-1.932;2023-11-21T07:33:18;101612.89;;;9.02;100.00
49645;BME280;36494;50.730;-1.932;2023-11-21T07:35:43;101621.09;;;9.09;100.00
49645;BME280;36494;50.730;-1.932;2023-11-21T07:38:09;101624.04;;;9.11;100.00
49645;BME280;36494;50.730;-1.932;2023-11-21T07:40:34;101617.82;;;8.98;100.00
49645;BME280;36494;50.730;-1.932;2023-11-21T07:42:59;101625.49;;;9.00;100.00
49645;BME280;36494;50.730;-1.932;2023-11-21T07:45:25;101629.14;;;8.98;100.00
49645;BME280;36494;50.730;-1.932;2023-11-21T07:47:50;101635.64;;;8.96;100.00
49645;BME280;36494;50.730;-1.932;2023-11-21T07:50:15;101645.22;;;8.91;100.00
49645;BME280;36494;50.730;-1.932;2023-11-21T07:52:41;101643.81;;;9.00;100.00
49645;BME280;36494;50.730;-1.932;2023-11-21T07:55:07;101648.83;;;8.90;100.00
49645;BME280;36494;50.730;-1.932;2023-11-21T07:57:31;101655.34;;;8.91;100.00
49645;BME280;36494;50.730;-1.932;2023-11-21T07:59:57;101658.61;;;8.89;100.00
49645;BME280;36494;50.730;-1.932;2023-11-21T08:02:22;101656.53;;;8.86;100.00
49645;BME280;36494;50.730;-1.932;2023-11-21T08:04:47;101659.65;;;8.84;100.00
49645;BME280;36494;50.730;-1.932;2023-11-21T08:07:13;101655.91;;;8.86;100.00
49645;BME280;36494;50.730;-1.932;2023-11-21T08:09:38;101652.88;;;8.88;100.00
49645;BME280;36494;50.730;-1.932;2023-11-21T08:12:04;101648.21;;;8.93;100.00
49645;BME280;36494;50.730;-1.932;2023-11-21T08:14:29;101646.81;;;8.93;100.00
49645;BME280;36494;50.730;-1.932;2023-11-21T08:16:54;101661.89;;;8.88;100.00
49645;BME280;36494;50.730;-1.932;2023-11-21T08:19:20;101659.66;;;8.92;100.00
49645;BME280;36494;50.730;-1.932;2023-11-21T08:21:45;101668.85;;;8.85;100.00
49645;BME280;36494;50.730;-1.932;2023-11-21T08:24:10;101679.98;;;8.86;100.00
49645;BME280;36494;50.730;-1.932;2023-11-21T08:26:36;101679.93;;;8.92;100.00
49645;BME280;36494;50.730;-1.932;2023-11-21T08:29:01;101684.66;;;8.89;100.00
49645;BME280;36494;50.730;-1.932;2023-11-21T08:31:27;101684.42;;;8.89;100.00
49645;BME280;36494;50.730;-1.932;2023-11-21T08:33:52;101689.36;;;8.91;100.00
49645;BME280;36494;50.730;-1.932;2023-11-21T08:36:17;101693.10;;;8.91;100.00
49645;BME280;36494;50.730;-1.932;2023-11-21T08:38:42;101700.58;;;8.95;100.00
49645;BME280;36494;50.730;-1.932;2023-11-21T08:41:08;101701.55;;;8.93;100.00
49645;BME280;36494;50.730;-1.932;2023-11-21T08:43:34;101701.31;;;9.03;100.00
49645;BME280;36494;50.730;-1.932;2023-11-21T08:45:59;101702.69;;;9.03;100.00
49645;BME280;36494;50.730;-1.932;2023-11-21T08:48:24;101702.38;;;9.03;100.00
49645;BME280;36494;50.730;-1.932;2023-11-21T08:50:49;101708.18;;;9.06;100.00
49645;BME280;36494;50.730;-1.932;2023-11-21T08:53:15;101710.49;;;9.05;100.00
49645;BME280;36494;50.730;-1.932;2023-11-21T08:55:40;101710.86;;;9.02;100.00
49645;BME280;36494;50.730;-1.932;2023-11-21T08:58:05;101719.64;;;9.10;100.00
49645;BME280;36494;50.730;-1.932;2023-11-21T09:00:32;101718.74;;;9.05;100.00
49645;BME280;36494;50.730;-1.932;2023-11-21T09:02:56;101719.38;;;9.08;100.00
49645;BME280;36494;50.730;-1.932;2023-11-21T09:05:21;101725.06;;;9.12;100.00
49645;BME280;36494;50.730;-1.932;2023-11-21T09:07:47;101731.46;;;9.14;100.00
49645;BME280;36494;50.730;-1.932;2023-11-21T09:10:13;101729.71;;;9.13;100.00
49645;BME280;36494;50.730;-1.932;2023-11-21T09:12:38;101727.92;;;9.17;100.00
49645;BME280;36494;50.730;-1.932;2023-11-21T09:15:03;101723.54;;;9.16;100.00
49645;BME280;36494;50.730;-1.932;2023-11-21T09:17:28;101727.50;;;9.18;100.00
49645;BME280;36494;50.730;-1.932;2023-11-21T09:19:54;101732.48;;;9.19;100.00
49645;BME280;36494;50.730;-1.932;2023-11-21T09:22:19;101726.31;;;9.17;100.00
49645;BME280;36494;50.730;-1.932;2023-11-21T09:24:44;101731.07;;;9.21;100.00
49645;BME280;36494;50.730;-1.932;2023-11-21T09:27:10;101738.08;;;9.20;100.00
49645;BME280;36494;50.730;-1.932;2023-11-21T09:29:35;101735.50;;;9.26;100.00
49645;BME280;36494;50.730;-1.932;2023-11-21T09:32:00;101738.32;;;9.27;100.00
49645;BME280;36494;50.730;-1.932;2023-11-21T09:34:26;101738.79;;;9.25;100.00
49645;BME280;36494;50.730;-1.932;2023-11-21T09:36:51;101744.41;;;9.27;100.00
49645;BME280;36494;50.730;-1.932;2023-11-21T09:39:16;101741.52;;;9.28;100.00
49645;BME280;36494;50.730;-1.932;2023-11-21T09:41:44;101744.34;;;9.31;100.00
49645;BME280;36494;50.730;-1.932;2023-11-21T09:44:09;101745.36;;;9.33;100.00
49645;BME280;36494;50.730;-1.932;2023-11-21T09:46:33;101741.11;;;9.39;100.00
49645;BME280;36494;50.730;-1.932;2023-11-21T09:49:00;101747.98;;;9.37;100.00
49645;BME280;36494;50.730;-1.932;2023-11-21T09:51:25;101755.93;;;9.33;100.00
49645;BME280;36494;50.730;-1.932;2023-11-21T09:53:50;101762.25;;;9.34;100.00
49645;BME280;36494;50.730;-1.932;2023-11-21T09:56:14;101770.31;;;9.37;100.00
49645;BME280;36494;50.730;-1.932;2023-11-21T09:58:39;101772.64;;;9.38;100.00
49645;BME280;36494;50.730;-1.932;2023-11-21T10:01:05;101776.56;;;9.45;100.00
49645;BME280;36494;50.730;-1.932;2023-11-21T10:03:30;101774.55;;;9.41;100.00
49645;BME280;36494;50.730;-1.932;2023-11-21T10:05:56;101785.29;;;9.40;100.00
49645;BME280;36494;50.730;-1.932;2023-11-21T10:08:22;101789.13;;;9.44;100.00
49645;BME280;36494;50.730;-1.932;2023-11-21T10:10:49;101795.88;;;9.45;100.00
49645;BME280;36494;50.730;-1.932;2023-11-21T10:13:13;101798.33;;;9.46;100.00
49645;BME280;36494;50.730;-1.932;2023-11-21T10:15:37;101800.34;;;9.40;100.00
49645;BME280;36494;50.730;-1.932;2023-11-21T10:18:03;101805.07;;;9.49;100.00
49645;BME280;36494;50.730;-1.932;2023-11-21T10:20:28;101807.32;;;9.53;100.00
49645;BME280;36494;50.730;-1.932;2023-11-21T10:22:53;101808.81;;;9.53;100.00
49645;BME280;36494;50.730;-1.932;2023-11-21T10:25:18;101808.59;;;9.53;100.00
49645;BME280;36494;50.730;-1.932;2023-11-21T10:27:48;101808.78;;;9.50;100.00
49645;BME280;36494;50.730;-1.932;2023-11-21T10:30:10;101812.64;;;9.59;100.00
49645;BME280;36494;50.730;-1.932;2023-11-21T10:32:34;101815.68;;;9.60;100.00
49645;BME280;36494;50.730;-1.932;2023-11-21T10:35:00;101819.95;;;9.63;100.00
49645;BME280;36494;50.730;-1.932;2023-11-21T10:37:25;101818.82;;;9.63;100.00
49645;BME280;36494;50.730;-1.932;2023-11-21T10:39:50;101827.42;;;9.60;100.00
49645;BME280;36494;50.730;-1.932;2023-11-21T10:42:18;101829.67;;;9.61;100.00
49645;BME280;36494;50.730;-1.932;2023-11-21T10:44:41;101829.65;;;9.64;100.00
49645;BME280;36494;50.730;-1.932;2023-11-21T10:47:08;101831.20;;;9.69;100.00
49645;BME280;36494;50.730;-1.932;2023-11-21T10:49:32;101832.03;;;9.61;100.00
49645;BME280;36494;50.730;-1.932;2023-11-21T10:51:57;101839.19;;;9.69;100.00
49645;BME280;36494;50.730;-1.932;2023-11-21T10:54:24;101838.87;;;9.65;100.00
49645;BME280;36494;50.730;-1.932;2023-11-21T10:56:49;101844.03;;;9.71;100.00
49645;BME280;36494;50.730;-1.932;2023-11-21T10:59:13;101839.62;;;9.68;100.00
49645;BME280;36494;50.730;-1.932;2023-11-21T11:01:39;101839.92;;;9.66;100.00
49645;BME280;36494;50.730;-1.932;2023-11-21T11:04:06;101845.49;;;9.68;100.00
49645;BME280;36494;50.730;-1.932;2023-11-21T11:06:29;101849.19;;;9.70;100.00
49645;BME280;36494;50.730;-1.932;2023-11-21T11:08:55;101847.94;;;9.68;100.00
49645;BME280;36494;50.730;-1.932;2023-11-21T11:11:20;101848.70;;;9.71;100.00
49645;BME280;36494;50.730;-1.932;2023-11-21T11:13:45;101847.00;;;9.68;100.00
49645;BME280;36494;50.730;-1.932;2023-11-21T11:16:12;101837.49;;;9.70;100.00
49645;BME280;36494;50.730;-1.932;2023-11-21T11:18:36;101841.37;;;9.62;100.00
49645;BME280;36494;50.730;-1.932;2023-11-21T11:21:07;101840.37;;;9.70;100.00
49645;BME280;36494;50.730;-1.932;2023-11-21T11:23:37;101840.93;;;9.73;100.00
49645;BME280;36494;50.730;-1.932;2023-11-21T11:26:03;101847.96;;;9.76;100.00
49645;BME280;36494;50.730;-1.932;2023-11-21T11:28:20;101852.45;;;9.74;100.00
49645;BME280;36494;50.730;-1.932;2023-11-21T11:30:52;101854.72;;;9.73;100.00
49645;BME280;36494;50.730;-1.932;2023-11-21T11:33:14;101857.61;;;9.66;100.00
49645;BME280;36494;50.730;-1.932;2023-11-21T11:35:41;101853.75;;;9.66;100.00
49645;BME280;36494;50.730;-1.932;2023-11-21T11:37:59;101855.43;;;9.71;100.00
49645;BME280;36494;50.730;-1.932;2023-11-21T11:40:39;101853.42;;;9.63;100.00
49645;BME280;36494;50.730;-1.932;2023-11-21T11:42:56;101855.43;;;9.66;100.00
49645;BME280;36494;50.730;-1.932;2023-11-21T11:45:18;101856.06;;;9.69;100.00
49645;BME280;36494;50.730;-1.932;2023-11-21T11:47:42;101857.25;;;9.71;100.00
49645;BME280;36494;50.730;-1.932;2023-11-21T11:50:07;101858.28;;;9.74;100.00
49645;BME280;36494;50.730;-1.932;2023-11-21T11:52:34;101856.04;;;9.74;100.00
49645;BME280;36494;50.730;-1.932;2023-11-21T11:54:56;101858.77;;;9.73;100.00
49645;BME280;36494;50.730;-1.932;2023-11-21T11:57:24;101858.08;;;9.67;100.00
49645;BME280;36494;50.730;-1.932;2023-11-21T12:02:12;101858.24;;;9.75;100.00
49645;BME280;36494;50.730;-1.932;2023-11-21T12:04:41;101858.94;;;9.71;100.00
49645;BME280;36494;50.730;-1.932;2023-11-21T12:07:04;101859.86;;;9.75;100.00
49645;BME280;36494;50.730;-1.932;2023-11-21T12:09:30;101860.43;;;9.78;100.00
49645;BME280;36494;50.730;-1.932;2023-11-21T12:11:54;101862.87;;;9.71;100.00
49645;BME280;36494;50.730;-1.932;2023-11-21T12:14:20;101863.87;;;9.70;100.00
49645;BME280;36494;50.730;-1.932;2023-11-21T12:16:45;101870.14;;;9.68;100.00
49645;BME280;36494;50.730;-1.932;2023-11-21T12:19:10;101883.02;;;9.70;100.00
49645;BME280;36494;50.730;-1.932;2023-11-21T12:21:36;101883.14;;;9.73;100.00
49645;BME280;36494;50.730;-1.932;2023-11-21T12:24:01;101891.35;;;9.72;100.00
49645;BME280;36494;50.730;-1.932;2023-11-21T12:26:27;101895.41;;;9.73;100.00
49645;BME280;36494;50.730;-1.932;2023-11-21T12:28:52;101900.52;;;9.81;100.00